createdAt,value
2017-07-19T00:00:18.769Z,13.90
2017-07-19T00:02:45.706Z,13.90
2017-07-19T00:05:12.677Z,13.80
2017-07-19T00:07:39.621Z,13.80
2017-07-19T00:10:07.493Z,13.90
2017-07-19T00:12:34.429Z,13.80
2017-07-19T00:15:01.411Z,13.80
2017-07-19T00:17:29.149Z,13.80
2017-07-19T00:19:56.103Z,13.80
2017-07-19T00:22:23.046Z,13.90
2017-07-19T00:24:50.038Z,13.90
2017-07-19T00:27:16.986Z,13.90
2017-07-19T00:29:43.929Z,13.80
2017-07-19T00:32:10.887Z,13.90
2017-07-19T00:34:37.807Z,13.90
2017-07-19T00:37:05.525Z,13.80
2017-07-19T00:39:32.466Z,13.70
2017-07-19T00:41:59.428Z,13.70
2017-07-19T00:44:27.363Z,13.80
2017-07-19T00:46:54.307Z,13.80
2017-07-19T00:49:21.240Z,13.80
2017-07-19T00:51:48.215Z,13.60
2017-07-19T00:54:15.162Z,13.60
2017-07-19T00:56:42.102Z,13.60
2017-07-19T00:59:09.043Z,13.50
2017-07-19T01:01:35.997Z,13.40
2017-07-19T01:04:02.934Z,13.50
2017-07-19T01:06:29.878Z,13.50
2017-07-19T01:08:56.824Z,13.60
2017-07-19T01:11:24.800Z,13.80
2017-07-19T01:13:51.743Z,13.70
2017-07-19T01:16:18.700Z,13.60
2017-07-19T01:18:45.658Z,13.60
2017-07-19T01:21:12.600Z,13.60
2017-07-19T01:23:39.561Z,13.60
2017-07-19T01:26:08.297Z,13.80
2017-07-19T01:28:35.225Z,13.80
2017-07-19T01:31:02.168Z,13.90
2017-07-19T01:33:29.113Z,13.60
2017-07-19T01:35:56.050Z,13.60
2017-07-19T01:38:22.974Z,13.30
2017-07-19T01:40:50.686Z,13.30
2017-07-19T01:43:17.620Z,13.30
2017-07-19T01:45:44.589Z,13.30
2017-07-19T01:48:11.532Z,13.30
2017-07-19T01:50:38.512Z,13.30
2017-07-19T01:53:06.213Z,13.20
2017-07-19T01:55:33.188Z,13.20
2017-07-19T01:58:00.157Z,13.50
2017-07-19T02:00:27.926Z,13.30
2017-07-19T02:02:55.633Z,13.40
2017-07-19T02:05:22.595Z,13.40
2017-07-19T02:07:49.551Z,13.30
2017-07-19T02:10:16.518Z,13.20
2017-07-19T02:12:44.229Z,13.20
2017-07-19T02:15:11.189Z,13.20
2017-07-19T02:17:38.122Z,13.00
2017-07-19T02:20:05.097Z,13.00
2017-07-19T02:22:32.042Z,12.80
2017-07-19T02:24:59.055Z,12.80
2017-07-19T02:27:25.974Z,13.10
2017-07-19T02:29:52.946Z,13.20
2017-07-19T02:32:19.891Z,13.10
2017-07-19T02:34:46.836Z,12.90
2017-07-19T02:37:13.776Z,12.70
2017-07-19T02:39:40.734Z,12.60
2017-07-19T02:42:07.756Z,12.60
2017-07-19T02:44:34.694Z,12.50
2017-07-19T02:47:01.641Z,12.60
2017-07-19T02:49:28.584Z,12.70
2017-07-19T02:51:55.532Z,12.70
2017-07-19T02:54:22.488Z,12.50
2017-07-19T02:56:49.442Z,12.60
2017-07-19T02:59:16.377Z,12.50
2017-07-19T03:01:43.329Z,12.70
2017-07-19T03:04:10.288Z,12.80
2017-07-19T03:06:37.269Z,12.70
2017-07-19T03:09:05.194Z,12.30
2017-07-19T03:11:32.130Z,12.20
2017-07-19T03:13:59.078Z,12.40
2017-07-19T03:16:26.029Z,12.60
2017-07-19T03:18:52.969Z,12.60
2017-07-19T03:21:19.929Z,12.50
2017-07-19T03:23:46.863Z,12.30
2017-07-19T03:26:14.758Z,12.20
2017-07-19T03:28:41.683Z,12.30
2017-07-19T03:31:08.650Z,12.10
2017-07-19T03:33:35.600Z,12.00
2017-07-19T03:36:02.549Z,12.00
2017-07-19T03:38:29.484Z,12.10
2017-07-19T03:40:56.418Z,12.30
2017-07-19T03:43:23.354Z,12.40
2017-07-19T03:45:50.337Z,12.50
2017-07-19T03:48:18.038Z,12.40
2017-07-19T03:50:45.002Z,12.40
2017-07-19T03:53:11.929Z,12.40
2017-07-19T03:55:38.858Z,12.30
2017-07-19T03:58:05.819Z,12.30
2017-07-19T04:00:32.764Z,12.40
2017-07-19T04:03:00.751Z,12.50
2017-07-19T04:05:27.704Z,12.70
2017-07-19T04:07:54.683Z,12.70
2017-07-19T04:10:22.384Z,12.80
2017-07-19T04:12:49.358Z,12.70
2017-07-19T04:15:16.303Z,12.80
2017-07-19T04:17:43.249Z,12.80
2017-07-19T04:20:11.182Z,12.90
2017-07-19T04:22:38.136Z,13.00
2017-07-19T04:25:06.120Z,13.20
2017-07-19T04:27:33.984Z,13.30
2017-07-19T04:30:00.917Z,13.30
2017-07-19T04:32:31.568Z,13.30
2017-07-19T04:34:59.516Z,13.30
2017-07-19T04:37:27.397Z,13.50
2017-07-19T04:39:54.692Z,13.70
2017-07-19T04:42:22.391Z,13.70
2017-07-19T04:44:49.305Z,13.70
2017-07-19T04:47:17.028Z,13.80
2017-07-19T04:49:43.956Z,13.80
2017-07-19T04:52:10.883Z,13.80
2017-07-19T04:54:37.831Z,13.90
2017-07-19T04:57:04.775Z,14.00
2017-07-19T04:59:31.762Z,14.00
2017-07-19T05:01:58.721Z,13.90
2017-07-19T05:04:26.534Z,14.50
2017-07-19T05:06:53.485Z,14.50
2017-07-19T05:09:20.463Z,14.50
2017-07-19T05:11:48.380Z,14.50
2017-07-19T05:14:15.337Z,14.40
2017-07-19T05:16:42.280Z,14.40
2017-07-19T05:19:09.254Z,14.60
2017-07-19T05:21:36.214Z,14.70
2017-07-19T05:24:04.153Z,14.90
2017-07-19T05:26:31.106Z,14.90
2017-07-19T05:28:58.978Z,15.10
2017-07-19T05:31:25.926Z,15.10
2017-07-19T05:33:52.884Z,15.20
2017-07-19T05:36:19.822Z,15.30
2017-07-19T05:38:46.757Z,15.50
2017-07-19T05:41:13.720Z,15.50
2017-07-19T05:43:40.667Z,15.60
2017-07-19T05:46:08.403Z,15.80
2017-07-19T05:48:36.364Z,15.80
2017-07-19T05:51:03.336Z,15.90
2017-07-19T05:53:30.290Z,16.00
2017-07-19T05:55:57.244Z,16.20
2017-07-19T05:58:24.181Z,16.20
2017-07-19T06:00:51.955Z,16.30
2017-07-19T06:03:18.901Z,16.20
2017-07-19T06:05:46.601Z,16.50
2017-07-19T06:08:13.561Z,16.40
2017-07-19T06:10:40.504Z,16.50
2017-07-19T06:13:07.456Z,16.60
2017-07-19T06:15:34.480Z,16.70
2017-07-19T06:18:01.446Z,16.90
2017-07-19T06:20:28.389Z,17.00
2017-07-19T06:22:55.365Z,17.00
2017-07-19T06:25:22.306Z,17.10
2017-07-19T06:27:49.280Z,17.20
2017-07-19T06:30:17.160Z,17.30
2017-07-19T06:32:47.158Z,17.40
2017-07-19T06:35:16.095Z,17.50
2017-07-19T06:37:43.044Z,17.80
2017-07-19T06:40:10.070Z,17.80
2017-07-19T06:42:37.046Z,17.80
2017-07-19T06:45:04.834Z,17.80
2017-07-19T06:47:32.584Z,18.00
2017-07-19T06:50:00.503Z,18.00
2017-07-19T06:52:27.444Z,17.90
2017-07-19T06:54:55.313Z,18.10
2017-07-19T06:57:22.293Z,18.10
2017-07-19T06:59:49.271Z,18.20
2017-07-19T07:02:16.970Z,18.50
2017-07-19T07:04:43.944Z,18.40
2017-07-19T07:07:11.882Z,18.50
2017-07-19T07:09:39.749Z,18.70
2017-07-19T07:12:06.724Z,18.90
2017-07-19T07:14:33.686Z,19.00
2017-07-19T07:17:00.619Z,19.00
2017-07-19T07:19:27.564Z,19.20
2017-07-19T07:21:54.518Z,19.20
2017-07-19T07:24:21.501Z,19.10
2017-07-19T07:26:48.423Z,19.10
2017-07-19T07:29:17.067Z,19.10
2017-07-19T07:31:45.937Z,19.10
2017-07-19T07:34:13.817Z,19.10
2017-07-19T07:36:40.757Z,19.30
2017-07-19T07:39:07.768Z,19.30
2017-07-19T07:41:35.468Z,19.70
2017-07-19T07:44:02.429Z,19.60
2017-07-19T07:46:29.370Z,19.60
2017-07-19T07:48:56.342Z,19.70
2017-07-19T07:51:23.284Z,19.80
2017-07-19T07:53:50.498Z,19.90
2017-07-19T07:56:20.781Z,20.00
2017-07-19T07:58:48.480Z,20.10
2017-07-19T08:01:15.461Z,20.10
2017-07-19T08:03:42.385Z,20.20
2017-07-19T08:06:10.349Z,20.30
2017-07-19T08:08:37.291Z,20.50
2017-07-19T08:11:04.241Z,20.50
2017-07-19T08:13:31.177Z,20.50
2017-07-19T08:15:58.135Z,20.70
2017-07-19T08:18:25.079Z,20.70
2017-07-19T08:20:52.029Z,20.70
2017-07-19T08:23:18.964Z,21.00
2017-07-19T08:25:45.920Z,21.20
2017-07-19T08:28:12.881Z,21.20
2017-07-19T08:30:39.835Z,21.40
2017-07-19T08:33:07.544Z,21.80
2017-07-19T08:35:34.523Z,21.70
2017-07-19T08:38:01.453Z,21.50
2017-07-19T08:40:28.405Z,21.50
2017-07-19T08:42:55.336Z,21.60
2017-07-19T08:45:22.291Z,21.30
2017-07-19T08:47:50.245Z,21.30
2017-07-19T08:50:18.210Z,21.60
2017-07-19T08:52:45.155Z,21.80
2017-07-19T08:55:12.091Z,21.90
2017-07-19T08:57:39.020Z,21.70
2017-07-19T09:00:05.973Z,21.90
2017-07-19T09:02:32.920Z,22.30
2017-07-19T09:04:59.893Z,22.40
2017-07-19T09:07:26.825Z,22.40
2017-07-19T09:09:53.789Z,22.20
2017-07-19T09:12:20.718Z,22.20
2017-07-19T09:14:47.700Z,22.40
2017-07-19T09:17:14.639Z,22.40
2017-07-19T09:19:41.583Z,22.10
2017-07-19T09:22:10.453Z,22.10
2017-07-19T09:24:37.435Z,21.90
2017-07-19T09:27:04.414Z,21.90
2017-07-19T09:29:31.354Z,22.00
2017-07-19T09:31:58.528Z,22.10
2017-07-19T09:34:27.420Z,22.30
2017-07-19T09:36:56.161Z,22.40
2017-07-19T09:39:23.105Z,22.40
2017-07-19T09:41:50.106Z,22.50
2017-07-19T09:44:17.796Z,22.60
2017-07-19T09:46:44.758Z,22.60
2017-07-19T09:49:17.389Z,22.40
2017-07-19T09:51:49.297Z,22.80
2017-07-19T09:54:16.328Z,22.80
2017-07-19T09:56:43.292Z,22.90
2017-07-19T09:59:10.233Z,23.00
2017-07-19T10:01:37.208Z,23.30
2017-07-19T10:04:05.153Z,23.40
2017-07-19T10:06:32.279Z,23.50
2017-07-19T10:09:00.260Z,23.20
2017-07-19T10:11:27.249Z,23.30
2017-07-19T10:13:55.135Z,23.10
2017-07-19T10:16:22.072Z,23.40
2017-07-19T10:18:49.797Z,23.30
2017-07-19T10:21:16.738Z,23.30
2017-07-19T10:23:45.729Z,23.50
2017-07-19T10:26:15.926Z,23.40
2017-07-19T10:28:44.833Z,23.50
2017-07-19T10:31:11.760Z,23.40
2017-07-19T10:33:38.748Z,23.60
2017-07-19T10:36:05.709Z,23.60
2017-07-19T10:38:32.683Z,23.50
2017-07-19T10:40:59.618Z,23.50
2017-07-19T10:43:26.580Z,23.80
2017-07-19T10:45:53.523Z,23.90
2017-07-19T10:48:21.418Z,24.00
2017-07-19T10:50:48.345Z,23.80
2017-07-19T10:53:15.331Z,23.80
2017-07-19T10:55:43.269Z,24.20
2017-07-19T10:58:10.208Z,24.20
2017-07-19T11:00:37.173Z,24.20
2017-07-19T11:03:04.105Z,24.20
2017-07-19T11:05:31.087Z,24.20
2017-07-19T11:07:59.822Z,24.30
2017-07-19T11:10:26.747Z,24.30
2017-07-19T11:12:53.683Z,24.10
2017-07-19T11:15:21.382Z,24.30
2017-07-19T11:17:50.277Z,24.30
2017-07-19T11:20:18.165Z,24.50
2017-07-19T11:22:45.138Z,24.40
2017-07-19T11:25:12.845Z,24.20
2017-07-19T11:27:40.813Z,24.10
2017-07-19T11:30:07.756Z,24.30
2017-07-19T11:32:35.736Z,24.60
2017-07-19T11:35:03.694Z,24.60
2017-07-19T11:37:31.965Z,24.60
2017-07-19T11:39:58.900Z,24.70
2017-07-19T11:42:25.878Z,24.70
2017-07-19T11:44:52.836Z,25.10
2017-07-19T11:47:19.813Z,25.40
2017-07-19T11:49:48.746Z,25.00
2017-07-19T11:52:15.685Z,24.90
2017-07-19T11:54:43.496Z,25.10
2017-07-19T11:57:10.428Z,25.30
2017-07-19T11:59:37.376Z,25.40
2017-07-19T12:02:04.329Z,25.30
2017-07-19T12:04:32.052Z,25.10
2017-07-19T12:06:58.985Z,25.10
2017-07-19T12:09:26.900Z,25.00
2017-07-19T12:11:54.603Z,25.60
2017-07-19T12:14:21.566Z,25.60
2017-07-19T12:16:48.535Z,25.70
2017-07-19T12:19:17.684Z,26.00
2017-07-19T12:21:44.658Z,26.20
2017-07-19T12:24:11.597Z,26.20
2017-07-19T12:26:38.582Z,25.90
2017-07-19T12:29:05.677Z,26.20
2017-07-19T12:31:33.570Z,26.30
2017-07-19T12:34:00.524Z,26.20
2017-07-19T12:36:27.486Z,26.00
2017-07-19T12:38:56.281Z,26.30
2017-07-19T12:41:23.260Z,26.30
2017-07-19T12:43:54.530Z,26.40
2017-07-19T12:46:21.509Z,26.70
2017-07-19T12:48:49.222Z,26.50
2017-07-19T12:51:16.203Z,26.60
2017-07-19T12:53:43.281Z,26.20
2017-07-19T12:56:11.056Z,26.60
2017-07-19T12:58:37.993Z,26.60
2017-07-19T13:01:06.826Z,26.20
2017-07-19T13:03:34.798Z,26.20
2017-07-19T13:06:01.729Z,25.90
2017-07-19T13:08:29.613Z,25.60
2017-07-19T13:10:56.533Z,25.70
2017-07-19T13:13:27.997Z,25.80
2017-07-19T13:15:59.421Z,26.10
2017-07-19T13:18:26.352Z,26.30
2017-07-19T13:20:54.272Z,25.90
2017-07-19T13:23:21.218Z,25.90
2017-07-19T13:25:48.561Z,25.80
2017-07-19T13:28:15.495Z,26.20
2017-07-19T13:30:43.352Z,26.20
2017-07-19T13:33:10.348Z,26.20
2017-07-19T13:35:37.293Z,28.70
2017-07-19T13:38:04.227Z,32.10
2017-07-19T13:40:36.074Z,33.40
2017-07-19T13:43:03.013Z,35.10
2017-07-19T13:45:30.024Z,34.30
2017-07-19T13:47:57.007Z,34.30
2017-07-19T13:50:24.980Z,33.40
2017-07-19T13:52:51.902Z,33.40
2017-07-19T13:55:18.857Z,32.70
2017-07-19T13:57:45.800Z,31.60
2017-07-19T14:00:12.845Z,31.40
2017-07-19T14:02:39.778Z,31.00
2017-07-19T14:05:06.717Z,30.10
2017-07-19T14:07:34.610Z,30.30
2017-07-19T14:10:03.453Z,30.10
2017-07-19T14:12:34.850Z,29.70
2017-07-19T14:15:02.902Z,29.70
2017-07-19T14:17:29.844Z,29.00
2017-07-19T14:19:56.771Z,28.90
2017-07-19T14:22:23.762Z,29.40
2017-07-19T14:24:51.735Z,29.60
2017-07-19T14:27:18.718Z,29.60
2017-07-19T14:29:46.463Z,30.00
2017-07-19T14:32:15.418Z,29.90
2017-07-19T14:34:43.276Z,30.10
2017-07-19T14:37:10.232Z,30.30
2017-07-19T14:39:37.523Z,30.50
2017-07-19T14:42:07.518Z,29.70
2017-07-19T14:44:35.483Z,29.90
2017-07-19T14:47:03.211Z,30.30
2017-07-19T14:49:30.149Z,30.30
2017-07-19T14:51:57.071Z,31.10
2017-07-19T14:54:24.019Z,30.90
2017-07-19T14:56:51.885Z,30.30
2017-07-19T14:59:18.836Z,29.20
2017-07-19T15:01:45.845Z,29.90
2017-07-19T15:04:12.835Z,31.50
2017-07-19T15:06:39.779Z,32.40
2017-07-19T15:09:06.734Z,33.40
2017-07-19T15:11:33.659Z,32.30
2017-07-19T15:14:00.604Z,32.10
2017-07-19T15:16:27.535Z,32.70
2017-07-19T15:18:54.530Z,31.30
2017-07-19T15:21:21.464Z,28.60
2017-07-19T15:23:49.414Z,27.00
2017-07-19T15:26:16.372Z,28.70
2017-07-19T15:28:43.331Z,27.70
2017-07-19T15:31:11.025Z,26.80
2017-07-19T15:33:37.954Z,27.60
2017-07-19T15:36:04.906Z,28.10
2017-07-19T15:38:31.868Z,28.00
2017-07-19T15:41:00.797Z,27.50
2017-07-19T15:43:28.643Z,27.00
2017-07-19T15:45:55.601Z,25.80
2017-07-19T15:48:25.820Z,25.40
2017-07-19T15:50:52.769Z,27.00
2017-07-19T15:53:19.701Z,28.70
2017-07-19T15:55:50.198Z,28.70
2017-07-19T15:58:17.135Z,29.50
2017-07-19T16:00:44.088Z,29.70
2017-07-19T16:03:11.801Z,27.80
2017-07-19T16:05:38.757Z,27.80
2017-07-19T16:08:05.696Z,27.70
2017-07-19T16:10:32.644Z,27.10
2017-07-19T16:12:59.580Z,26.40
2017-07-19T16:15:26.531Z,26.60
2017-07-19T16:17:53.455Z,26.10
2017-07-19T16:20:20.401Z,26.10
2017-07-19T16:22:47.324Z,26.60
2017-07-19T16:25:15.053Z,26.40
2017-07-19T16:27:41.980Z,26.40
2017-07-19T16:30:08.905Z,26.70
2017-07-19T16:32:35.838Z,25.70
2017-07-19T16:35:02.804Z,25.10
2017-07-19T16:37:29.746Z,24.50
2017-07-19T16:39:56.719Z,24.60
2017-07-19T16:42:23.671Z,25.30
2017-07-19T16:44:51.568Z,25.00
2017-07-19T16:47:19.416Z,25.10
2017-07-19T16:49:47.304Z,24.90
2017-07-19T16:52:14.238Z,24.80
2017-07-19T16:54:41.199Z,24.80
2017-07-19T16:57:08.321Z,24.40
2017-07-19T16:59:35.255Z,23.80
2017-07-19T17:02:02.192Z,23.60
2017-07-19T17:04:29.121Z,23.60
2017-07-19T17:06:56.831Z,23.10
2017-07-19T17:09:24.808Z,23.00
2017-07-19T17:11:51.737Z,22.80
2017-07-19T17:14:18.699Z,22.40
2017-07-19T17:16:46.401Z,22.20
2017-07-19T17:19:13.362Z,22.10
2017-07-19T17:21:41.220Z,22.00
2017-07-19T17:24:08.172Z,21.80
2017-07-19T17:26:35.094Z,21.80
2017-07-19T17:29:02.076Z,21.90
2017-07-19T17:31:29.011Z,21.80
2017-07-19T17:33:56.997Z,21.90
2017-07-19T17:36:23.935Z,21.90
2017-07-19T17:38:51.877Z,21.70
2017-07-19T17:41:18.855Z,21.70
2017-07-19T17:43:45.784Z,21.60
2017-07-19T17:46:12.732Z,21.60
2017-07-19T17:48:39.656Z,21.60
2017-07-19T17:51:06.715Z,21.30
2017-07-19T17:53:35.612Z,21.10
2017-07-19T17:56:02.593Z,21.10
2017-07-19T17:58:33.942Z,21.00
2017-07-19T18:01:00.908Z,20.90
2017-07-19T18:03:27.871Z,20.80
2017-07-19T18:05:55.781Z,20.70
2017-07-19T18:08:22.722Z,20.60
2017-07-19T18:10:51.595Z,20.60
2017-07-19T18:13:18.788Z,20.50
2017-07-19T18:15:46.658Z,20.40
2017-07-19T18:18:14.356Z,20.20
2017-07-19T18:20:41.336Z,20.20
2017-07-19T18:23:08.264Z,20.10
2017-07-19T18:25:35.212Z,20.00
2017-07-19T18:28:03.076Z,19.90
2017-07-19T18:30:30.035Z,19.80
2017-07-19T18:32:56.964Z,19.80
2017-07-19T18:35:23.972Z,19.70
2017-07-19T18:37:51.678Z,19.70
2017-07-19T18:40:18.656Z,19.60
2017-07-19T18:42:46.430Z,19.60
2017-07-19T18:45:15.188Z,19.60
2017-07-19T18:47:42.187Z,19.60
2017-07-19T18:50:09.118Z,19.50
2017-07-19T18:52:36.827Z,19.50
2017-07-19T18:55:03.752Z,19.50
2017-07-19T18:57:34.700Z,19.40
2017-07-19T19:00:02.662Z,19.40
2017-07-19T19:02:29.612Z,19.40
2017-07-19T19:04:58.503Z,19.40
2017-07-19T19:07:25.448Z,19.30
2017-07-19T19:09:52.371Z,19.30
2017-07-19T19:12:23.443Z,19.20
2017-07-19T19:14:51.388Z,19.10
2017-07-19T19:17:18.324Z,19.10
2017-07-19T19:19:51.392Z,19.10
2017-07-19T19:22:22.171Z,19.10
2017-07-19T19:24:49.126Z,19.10
2017-07-19T19:27:17.061Z,19.00
2017-07-19T19:29:44.007Z,19.00
2017-07-19T19:32:12.218Z,19.00
2017-07-19T19:34:39.201Z,19.00
2017-07-19T19:37:07.087Z,19.00
2017-07-19T19:39:34.047Z,19.00
2017-07-19T19:42:01.015Z,18.90
2017-07-19T19:44:27.968Z,19.00
2017-07-19T19:46:56.860Z,19.00
2017-07-19T19:49:23.902Z,19.00
2017-07-19T19:51:50.837Z,18.90
2017-07-19T19:54:18.813Z,18.90
2017-07-19T19:56:45.772Z,18.90
2017-07-19T19:59:12.698Z,18.90
2017-07-19T20:01:39.625Z,18.90
2017-07-19T20:04:06.568Z,18.90
2017-07-19T20:06:33.509Z,18.90
2017-07-19T20:09:00.455Z,18.90
2017-07-19T20:11:27.381Z,18.80
2017-07-19T20:13:54.337Z,18.80
2017-07-19T20:16:21.328Z,18.80
2017-07-19T20:18:48.284Z,18.90
2017-07-19T20:21:17.206Z,18.90
2017-07-19T20:23:45.132Z,18.90
2017-07-19T20:26:13.068Z,18.90
2017-07-19T20:28:40.032Z,19.00
2017-07-19T20:31:06.965Z,18.90
2017-07-19T20:33:33.898Z,18.90
2017-07-19T20:36:01.618Z,18.90
2017-07-19T20:38:28.581Z,18.90
2017-07-19T20:40:55.524Z,18.90
2017-07-19T20:43:26.325Z,18.90
2017-07-19T20:45:53.271Z,18.80
2017-07-19T20:48:20.204Z,18.80
2017-07-19T20:50:47.152Z,18.70
2017-07-19T20:53:14.857Z,18.50
2017-07-19T20:55:41.812Z,18.40
2017-07-19T20:58:08.737Z,18.40
2017-07-19T21:00:35.712Z,18.40
2017-07-19T21:03:02.648Z,18.40
2017-07-19T21:05:30.500Z,18.30
2017-07-19T21:07:57.448Z,18.30
2017-07-19T21:10:24.396Z,18.20
2017-07-19T21:12:51.369Z,18.10
2017-07-19T21:15:18.345Z,18.00
2017-07-19T21:17:45.281Z,18.00
2017-07-19T21:20:13.203Z,18.00
2017-07-19T21:22:41.148Z,17.90
2017-07-19T21:25:08.206Z,17.90
2017-07-19T21:27:36.212Z,17.90
2017-07-19T21:30:03.203Z,17.90
2017-07-19T21:32:30.210Z,17.70
2017-07-19T21:34:57.925Z,17.70
2017-07-19T21:37:24.895Z,17.60
2017-07-19T21:39:51.837Z,17.60
2017-07-19T21:42:18.813Z,17.70
2017-07-19T21:44:46.521Z,17.80
2017-07-19T21:47:13.485Z,17.80
2017-07-19T21:49:40.426Z,17.80
2017-07-19T21:52:08.799Z,17.80
2017-07-19T21:54:35.732Z,17.80
2017-07-19T21:57:02.664Z,17.70
2017-07-19T21:59:29.635Z,17.80
2017-07-19T22:01:56.586Z,17.90
2017-07-19T22:04:25.473Z,17.80
2017-07-19T22:06:52.429Z,17.70
2017-07-19T22:09:19.410Z,17.60
2017-07-19T22:11:48.177Z,17.60
2017-07-19T22:14:15.133Z,17.60
2017-07-19T22:16:42.117Z,17.60
2017-07-19T22:19:09.176Z,17.50
2017-07-19T22:21:36.100Z,17.50
2017-07-19T22:24:03.060Z,17.50
2017-07-19T22:26:29.984Z,17.50
2017-07-19T22:28:56.950Z,17.40
2017-07-19T22:31:24.658Z,17.40
2017-07-19T22:33:51.617Z,17.40
2017-07-19T22:36:18.553Z,17.50
2017-07-19T22:38:45.506Z,17.50
2017-07-19T22:41:12.445Z,17.50
2017-07-19T22:43:39.375Z,17.50
2017-07-19T22:46:06.321Z,17.40
2017-07-19T22:48:33.253Z,17.40
2017-07-19T22:51:00.215Z,17.30
2017-07-19T22:53:27.259Z,17.40
2017-07-19T22:55:54.262Z,17.40
2017-07-19T22:58:21.970Z,17.30
2017-07-19T23:00:48.948Z,17.30
2017-07-19T23:03:16.824Z,17.30
2017-07-19T23:05:44.557Z,17.40
2017-07-19T23:08:11.516Z,17.30
2017-07-19T23:10:39.332Z,17.30
2017-07-19T23:13:06.272Z,17.30
2017-07-19T23:15:33.940Z,17.30
2017-07-19T23:18:00.883Z,17.30
2017-07-19T23:20:27.824Z,17.40
2017-07-19T23:22:54.759Z,17.40
2017-07-19T23:25:22.451Z,17.50
2017-07-19T23:27:49.405Z,17.40
2017-07-19T23:30:16.338Z,17.50
2017-07-19T23:32:43.301Z,17.50
2017-07-19T23:35:10.240Z,17.50
2017-07-19T23:37:37.212Z,17.40
2017-07-19T23:40:05.161Z,17.50
2017-07-19T23:42:32.118Z,17.40
2017-07-19T23:44:59.053Z,17.50
2017-07-19T23:47:26.027Z,17.50
2017-07-19T23:49:52.957Z,17.50
2017-07-19T23:52:19.913Z,17.50
2017-07-19T23:54:46.850Z,17.50
2017-07-19T23:57:13.810Z,17.50
2017-07-19T23:59:41.513Z,17.50
